sensor_id;sensor_type;location;lat;lon;timestamp;P1;durP1;ratioP1;P2;durP2;ratioP2
32780;SDS011;19136;47.032;15.502;2023-04-12T00:00:00;1.30;;;0.70;;
32780;SDS011;19136;47.032;15.502;2023-04-12T00:02:26;4.57;;;1.08;;
32780;SDS011;19136;47.032;15.502;2023-04-12T00:04:51;1.58;;;0.60;;
32780;SDS011;19136;47.032;15.502;2023-04-12T00:07:24;1.05;;;0.70;;
32780;SDS011;19136;47.032;15.502;2023-04-12T00:09:51;4.05;;;0.52;;
32780;SDS011;19136;47.032;15.502;2023-04-12T00:12:17;2.72;;;0.70;;
32780;SDS011;19136;47.032;15.502;2023-04-12T00:14:44;1.45;;;0.60;;
32780;SDS011;19136;47.032;15.502;2023-04-12T00:17:09;1.90;;;0.68;;
32780;SDS011;19136;47.032;15.502;2023-04-12T00:19:36;1.58;;;0.70;;
32780;SDS011;19136;47.032;15.502;2023-04-12T00:22:06;1.80;;;0.60;;
32780;SDS011;19136;47.032;15.502;2023-04-12T00:24:37;1.27;;;0.50;;
32780;SDS011;19136;47.032;15.502;2023-04-12T00:27:03;3.17;;;0.77;;
32780;SDS011;19136;47.032;15.502;2023-04-12T00:29:30;0.98;;;0.40;;
32780;SDS011;19136;47.032;15.502;2023-04-12T00:31:56;2.50;;;0.60;;
32780;SDS011;19136;47.032;15.502;2023-04-12T00:34:22;2.20;;;0.65;;
32780;SDS011;19136;47.032;15.502;2023-04-12T00:36:48;1.25;;;0.38;;
32780;SDS011;19136;47.032;15.502;2023-04-12T00:39:14;0.77;;;0.50;;
32780;SDS011;19136;47.032;15.502;2023-04-12T00:41:39;2.67;;;0.70;;
32780;SDS011;19136;47.032;15.502;2023-04-12T00:44:05;5.05;;;0.47;;
32780;SDS011;19136;47.032;15.502;2023-04-12T00:46:33;4.15;;;0.70;;
32780;SDS011;19136;47.032;15.502;2023-04-12T00:48:59;1.77;;;0.55;;
32780;SDS011;19136;47.032;15.502;2023-04-12T00:51:24;1.15;;;0.50;;
32780;SDS011;19136;47.032;15.502;2023-04-12T00:53:54;1.73;;;0.68;;
32780;SDS011;19136;47.032;15.502;2023-04-12T00:56:24;4.30;;;1.58;;
32780;SDS011;19136;47.032;15.502;2023-04-12T00:58:52;3.38;;;1.13;;
32780;SDS011;19136;47.032;15.502;2023-04-12T01:01:20;4.05;;;0.68;;
32780;SDS011;19136;47.032;15.502;2023-04-12T01:03:49;2.25;;;0.70;;
32780;SDS011;19136;47.032;15.502;2023-04-12T01:06:23;1.77;;;0.50;;
32780;SDS011;19136;47.032;15.502;2023-04-12T01:09:02;2.60;;;0.70;;
32780;SDS011;19136;47.032;15.502;2023-04-12T01:11:40;1.20;;;0.50;;
32780;SDS011;19136;47.032;15.502;2023-04-12T01:14:26;3.05;;;0.57;;
32780;SDS011;19136;47.032;15.502;2023-04-12T01:16:56;1.50;;;0.60;;
32780;SDS011;19136;47.032;15.502;2023-04-12T01:19:35;1.63;;;0.52;;
32780;SDS011;19136;47.032;15.502;2023-04-12T01:25:23;1.50;;;0.68;;
32780;SDS011;19136;47.032;15.502;2023-04-12T01:28:17;1.73;;;0.47;;
32780;SDS011;19136;47.032;15.502;2023-04-12T01:30:49;2.55;;;0.80;;
32780;SDS011;19136;47.032;15.502;2023-04-12T01:33:16;2.95;;;0.70;;
32780;SDS011;19136;47.032;15.502;2023-04-12T01:35:42;2.72;;;0.70;;
32780;SDS011;19136;47.032;15.502;2023-04-12T01:38:08;2.30;;;0.55;;
32780;SDS011;19136;47.032;15.502;2023-04-12T01:40:35;4.15;;;0.50;;
32780;SDS011;19136;47.032;15.502;2023-04-12T01:45:37;1.85;;;0.60;;
32780;SDS011;19136;47.032;15.502;2023-04-12T01:48:04;1.00;;;0.60;;
32780;SDS011;19136;47.032;15.502;2023-04-12T01:55:49;2.97;;;1.17;;
32780;SDS011;19136;47.032;15.502;2023-04-12T01:58:18;2.00;;;1.15;;
32780;SDS011;19136;47.032;15.502;2023-04-12T02:00:45;4.28;;;1.40;;
32780;SDS011;19136;47.032;15.502;2023-04-12T02:03:11;3.83;;;1.33;;
32780;SDS011;19136;47.032;15.502;2023-04-12T02:05:37;13.77;;;1.83;;
32780;SDS011;19136;47.032;15.502;2023-04-12T02:08:03;5.45;;;2.00;;
32780;SDS011;19136;47.032;15.502;2023-04-12T02:10:29;7.85;;;2.20;;
32780;SDS011;19136;47.032;15.502;2023-04-12T02:12:59;5.35;;;1.70;;
32780;SDS011;19136;47.032;15.502;2023-04-12T02:15:28;4.35;;;1.58;;
32780;SDS011;19136;47.032;15.502;2023-04-12T02:17:54;3.42;;;1.38;;
32780;SDS011;19136;47.032;15.502;2023-04-12T02:20:23;3.85;;;1.58;;
32780;SDS011;19136;47.032;15.502;2023-04-12T02:22:49;3.65;;;1.63;;
32780;SDS011;19136;47.032;15.502;2023-04-12T02:25:15;6.75;;;1.70;;
32780;SDS011;19136;47.032;15.502;2023-04-12T02:27:44;5.88;;;1.67;;
32780;SDS011;19136;47.032;15.502;2023-04-12T02:30:11;5.20;;;1.98;;
32780;SDS011;19136;47.032;15.502;2023-04-12T02:32:38;4.68;;;2.17;;
32780;SDS011;19136;47.032;15.502;2023-04-12T02:35:16;6.63;;;1.58;;
32780;SDS011;19136;47.032;15.502;2023-04-12T02:37:43;7.70;;;2.10;;
32780;SDS011;19136;47.032;15.502;2023-04-12T02:40:11;8.43;;;2.00;;
32780;SDS011;19136;47.032;15.502;2023-04-12T02:42:43;6.22;;;2.85;;
32780;SDS011;19136;47.032;15.502;2023-04-12T02:45:10;11.15;;;3.50;;
32780;SDS011;19136;47.032;15.502;2023-04-12T02:47:36;7.50;;;3.13;;
32780;SDS011;19136;47.032;15.502;2023-04-12T02:50:04;6.88;;;2.72;;
32780;SDS011;19136;47.032;15.502;2023-04-12T02:52:34;7.63;;;2.78;;
32780;SDS011;19136;47.032;15.502;2023-04-12T02:55:08;12.15;;;3.47;;
32780;SDS011;19136;47.032;15.502;2023-04-12T02:57:34;5.05;;;3.05;;
32780;SDS011;19136;47.032;15.502;2023-04-12T03:00:02;9.93;;;3.30;;
32780;SDS011;19136;47.032;15.502;2023-04-12T03:02:46;12.73;;;3.53;;
32780;SDS011;19136;47.032;15.502;2023-04-12T03:05:19;8.95;;;3.60;;
32780;SDS011;19136;47.032;15.502;2023-04-12T03:07:44;7.32;;;3.47;;
32780;SDS011;19136;47.032;15.502;2023-04-12T03:10:11;9.18;;;3.70;;
32780;SDS011;19136;47.032;15.502;2023-04-12T03:12:45;7.28;;;3.10;;
32780;SDS011;19136;47.032;15.502;2023-04-12T03:15:15;8.82;;;3.10;;
32780;SDS011;19136;47.032;15.502;2023-04-12T03:17:46;9.73;;;3.28;;
32780;SDS011;19136;47.032;15.502;2023-04-12T03:20:14;6.50;;;3.47;;
32780;SDS011;19136;47.032;15.502;2023-04-12T03:22:47;9.85;;;3.33;;
32780;SDS011;19136;47.032;15.502;2023-04-12T03:25:12;12.13;;;3.58;;
32780;SDS011;19136;47.032;15.502;2023-04-12T03:27:44;7.38;;;3.40;;
32780;SDS011;19136;47.032;15.502;2023-04-12T03:30:13;6.50;;;2.78;;
32780;SDS011;19136;47.032;15.502;2023-04-12T03:32:41;6.88;;;3.00;;
32780;SDS011;19136;47.032;15.502;2023-04-12T03:35:08;7.70;;;3.53;;
32780;SDS011;19136;47.032;15.502;2023-04-12T03:37:35;7.97;;;3.50;;
32780;SDS011;19136;47.032;15.502;2023-04-12T03:40:02;8.27;;;3.88;;
32780;SDS011;19136;47.032;15.502;2023-04-12T03:42:28;6.90;;;3.63;;
32780;SDS011;19136;47.032;15.502;2023-04-12T03:44:53;7.50;;;4.35;;
32780;SDS011;19136;47.032;15.502;2023-04-12T03:47:20;10.38;;;3.97;;
32780;SDS011;19136;47.032;15.502;2023-04-12T03:49:53;8.23;;;3.80;;
32780;SDS011;19136;47.032;15.502;2023-04-12T03:52:20;7.70;;;4.07;;
32780;SDS011;19136;47.032;15.502;2023-04-12T03:54:46;7.53;;;3.70;;
32780;SDS011;19136;47.032;15.502;2023-04-12T03:57:17;14.02;;;3.92;;
32780;SDS011;19136;47.032;15.502;2023-04-12T03:59:46;10.40;;;3.17;;
32780;SDS011;19136;47.032;15.502;2023-04-12T04:02:12;8.70;;;3.88;;
32780;SDS011;19136;47.032;15.502;2023-04-12T04:04:44;9.35;;;3.97;;
32780;SDS011;19136;47.032;15.502;2023-04-12T04:07:12;8.50;;;3.90;;
32780;SDS011;19136;47.032;15.502;2023-04-12T04:09:41;8.70;;;3.40;;
32780;SDS011;19136;47.032;15.502;2023-04-12T04:12:08;7.13;;;3.65;;
32780;SDS011;19136;47.032;15.502;2023-04-12T04:14:36;9.23;;;4.25;;
32780;SDS011;19136;47.032;15.502;2023-04-12T04:17:04;11.57;;;4.07;;
32780;SDS011;19136;47.032;15.502;2023-04-12T04:19:32;12.57;;;4.35;;
32780;SDS011;19136;47.032;15.502;2023-04-12T04:21:58;10.88;;;3.95;;
32780;SDS011;19136;47.032;15.502;2023-04-12T04:24:26;5.97;;;3.50;;
32780;SDS011;19136;47.032;15.502;2023-04-12T04:26:55;8.15;;;3.50;;
32780;SDS011;19136;47.032;15.502;2023-04-12T04:29:24;14.93;;;4.13;;
32780;SDS011;19136;47.032;15.502;2023-04-12T04:31:51;14.75;;;4.20;;
32780;SDS011;19136;47.032;15.502;2023-04-12T04:34:18;9.35;;;4.20;;
32780;SDS011;19136;47.032;15.502;2023-04-12T04:36:45;13.20;;;4.18;;
32780;SDS011;19136;47.032;15.502;2023-04-12T04:39:18;8.95;;;3.80;;
32780;SDS011;19136;47.032;15.502;2023-04-12T04:41:44;9.90;;;3.80;;
32780;SDS011;19136;47.032;15.502;2023-04-12T04:44:28;6.70;;;3.53;;
32780;SDS011;19136;47.032;15.502;2023-04-12T04:46:54;10.90;;;4.63;;
32780;SDS011;19136;47.032;15.502;2023-04-12T04:49:22;10.68;;;4.45;;
32780;SDS011;19136;47.032;15.502;2023-04-12T04:51:47;14.00;;;4.18;;
32780;SDS011;19136;47.032;15.502;2023-04-12T04:54:14;11.65;;;4.45;;
32780;SDS011;19136;47.032;15.502;2023-04-12T04:56:41;11.15;;;4.32;;
32780;SDS011;19136;47.032;15.502;2023-04-12T04:59:07;15.93;;;4.38;;
32780;SDS011;19136;47.032;15.502;2023-04-12T05:01:33;18.08;;;4.82;;
32780;SDS011;19136;47.032;15.502;2023-04-12T05:04:02;20.40;;;5.25;;
32780;SDS011;19136;47.032;15.502;2023-04-12T05:06:28;15.23;;;4.32;;
32780;SDS011;19136;47.032;15.502;2023-04-12T05:08:55;11.65;;;4.72;;
32780;SDS011;19136;47.032;15.502;2023-04-12T05:11:21;14.93;;;4.80;;
32780;SDS011;19136;47.032;15.502;2023-04-12T05:13:48;16.80;;;4.55;;
32780;SDS011;19136;47.032;15.502;2023-04-12T05:16:14;22.38;;;4.68;;
32780;SDS011;19136;47.032;15.502;2023-04-12T05:18:40;17.23;;;4.72;;
32780;SDS011;19136;47.032;15.502;2023-04-12T05:21:06;12.43;;;4.50;;
32780;SDS011;19136;47.032;15.502;2023-04-12T05:23:35;15.30;;;4.28;;
32780;SDS011;19136;47.032;15.502;2023-04-12T05:26:02;12.43;;;4.68;;
32780;SDS011;19136;47.032;15.502;2023-04-12T05:28:28;14.68;;;4.40;;
32780;SDS011;19136;47.032;15.502;2023-04-12T05:30:54;12.82;;;4.00;;
32780;SDS011;19136;47.032;15.502;2023-04-12T05:33:24;11.60;;;4.65;;
32780;SDS011;19136;47.032;15.502;2023-04-12T05:35:50;12.15;;;4.47;;
32780;SDS011;19136;47.032;15.502;2023-04-12T05:38:15;14.40;;;4.75;;
32780;SDS011;19136;47.032;15.502;2023-04-12T05:40:43;13.55;;;4.03;;
32780;SDS011;19136;47.032;15.502;2023-04-12T05:43:11;8.30;;;3.92;;
32780;SDS011;19136;47.032;15.502;2023-04-12T05:45:37;12.38;;;3.75;;
32780;SDS011;19136;47.032;15.502;2023-04-12T05:48:04;10.57;;;4.05;;
32780;SDS011;19136;47.032;15.502;2023-04-12T05:50:30;11.35;;;4.00;;
32780;SDS011;19136;47.032;15.502;2023-04-12T05:52:55;11.18;;;3.50;;
32780;SDS011;19136;47.032;15.502;2023-04-12T05:55:26;15.85;;;3.20;;
32780;SDS011;19136;47.032;15.502;2023-04-12T05:57:53;10.30;;;3.30;;
32780;SDS011;19136;47.032;15.502;2023-04-12T06:00:20;7.70;;;3.00;;
32780;SDS011;19136;47.032;15.502;2023-04-12T06:02:46;11.50;;;3.90;;
32780;SDS011;19136;47.032;15.502;2023-04-12T06:05:13;11.23;;;3.80;;
32780;SDS011;19136;47.032;15.502;2023-04-12T06:07:41;16.23;;;4.00;;
32780;SDS011;19136;47.032;15.502;2023-04-12T06:10:12;11.18;;;3.50;;
32780;SDS011;19136;47.032;15.502;2023-04-12T06:12:38;12.73;;;4.00;;
32780;SDS011;19136;47.032;15.502;2023-04-12T06:15:04;14.45;;;4.28;;
32780;SDS011;19136;47.032;15.502;2023-04-12T06:17:31;12.80;;;3.80;;
32780;SDS011;19136;47.032;15.502;2023-04-12T06:19:56;13.55;;;3.95;;
32780;SDS011;19136;47.032;15.502;2023-04-12T06:22:22;13.00;;;4.60;;
32780;SDS011;19136;47.032;15.502;2023-04-12T06:24:48;15.43;;;4.82;;
32780;SDS011;19136;47.032;15.502;2023-04-12T06:27:14;10.30;;;3.95;;
32780;SDS011;19136;47.032;15.502;2023-04-12T06:29:39;14.30;;;3.90;;
32780;SDS011;19136;47.032;15.502;2023-04-12T06:32:05;7.70;;;3.20;;
32780;SDS011;19136;47.032;15.502;2023-04-12T06:34:31;13.50;;;3.70;;
32780;SDS011;19136;47.032;15.502;2023-04-12T06:37:01;26.15;;;4.90;;
32780;SDS011;19136;47.032;15.502;2023-04-12T06:39:26;7.82;;;3.83;;
32780;SDS011;19136;47.032;15.502;2023-04-12T06:41:52;12.25;;;4.43;;
32780;SDS011;19136;47.032;15.502;2023-04-12T06:44:18;11.25;;;3.65;;
32780;SDS011;19136;47.032;15.502;2023-04-12T06:46:44;9.52;;;3.70;;
32780;SDS011;19136;47.032;15.502;2023-04-12T06:49:10;11.48;;;3.45;;
32780;SDS011;19136;47.032;15.502;2023-04-12T06:51:36;20.50;;;3.88;;
32780;SDS011;19136;47.032;15.502;2023-04-12T06:54:01;20.63;;;4.32;;
32780;SDS011;19136;47.032;15.502;2023-04-12T06:56:27;11.88;;;3.60;;
32780;SDS011;19136;47.032;15.502;2023-04-12T06:58:53;10.63;;;3.17;;
32780;SDS011;19136;47.032;15.502;2023-04-12T07:01:18;12.45;;;3.10;;
32780;SDS011;19136;47.032;15.502;2023-04-12T07:03:44;10.63;;;4.03;;
32780;SDS011;19136;47.032;15.502;2023-04-12T07:06:10;9.60;;;3.47;;
32780;SDS011;19136;47.032;15.502;2023-04-12T07:08:35;17.17;;;3.83;;
32780;SDS011;19136;47.032;15.502;2023-04-12T07:11:02;10.65;;;3.60;;
32780;SDS011;19136;47.032;15.502;2023-04-12T07:13:28;15.23;;;3.63;;
32780;SDS011;19136;47.032;15.502;2023-04-12T07:15:53;14.48;;;3.22;;
32780;SDS011;19136;47.032;15.502;2023-04-12T07:18:19;9.45;;;3.55;;
32780;SDS011;19136;47.032;15.502;2023-04-12T07:20:46;11.30;;;3.55;;
32780;SDS011;19136;47.032;15.502;2023-04-12T07:23:13;10.50;;;3.40;;
32780;SDS011;19136;47.032;15.502;2023-04-12T07:25:39;12.20;;;2.92;;
32780;SDS011;19136;47.032;15.502;2023-04-12T07:28:05;14.15;;;3.20;;
32780;SDS011;19136;47.032;15.502;2023-04-12T07:30:31;15.13;;;2.88;;
32780;SDS011;19136;47.032;15.502;2023-04-12T07:32:56;8.05;;;2.38;;
32780;SDS011;19136;47.032;15.502;2023-04-12T07:35:22;11.30;;;2.15;;
32780;SDS011;19136;47.032;15.502;2023-04-12T07:37:47;6.30;;;2.17;;
32780;SDS011;19136;47.032;15.502;2023-04-12T07:40:13;5.38;;;1.85;;
32780;SDS011;19136;47.032;15.502;2023-04-12T07:42:38;7.65;;;1.95;;
32780;SDS011;19136;47.032;15.502;2023-04-12T07:45:04;9.38;;;2.13;;
32780;SDS011;19136;47.032;15.502;2023-04-12T07:47:30;5.47;;;2.00;;
32780;SDS011;19136;47.032;15.502;2023-04-12T07:49:57;7.03;;;2.55;;
32780;SDS011;19136;47.032;15.502;2023-04-12T07:52:23;8.35;;;1.90;;
32780;SDS011;19136;47.032;15.502;2023-04-12T07:54:49;7.72;;;1.85;;
32780;SDS011;19136;47.032;15.502;2023-04-12T07:57:15;14.43;;;1.85;;
32780;SDS011;19136;47.032;15.502;2023-04-12T07:59:40;5.50;;;1.90;;
32780;SDS011;19136;47.032;15.502;2023-04-12T08:02:06;7.60;;;1.88;;
32780;SDS011;19136;47.032;15.502;2023-04-12T08:04:31;7.57;;;1.55;;
32780;SDS011;19136;47.032;15.502;2023-04-12T08:06:57;10.13;;;1.48;;
32780;SDS011;19136;47.032;15.502;2023-04-12T08:09:23;7.72;;;1.73;;
32780;SDS011;19136;47.032;15.502;2023-04-12T08:11:49;4.65;;;1.35;;
32780;SDS011;19136;47.032;15.502;2023-04-12T08:14:15;10.68;;;1.75;;
32780;SDS011;19136;47.032;15.502;2023-04-12T08:16:41;4.43;;;1.75;;
32780;SDS011;19136;47.032;15.502;2023-04-12T08:19:06;7.45;;;1.27;;
32780;SDS011;19136;47.032;15.502;2023-04-12T08:21:32;2.20;;;1.08;;
32780;SDS011;19136;47.032;15.502;2023-04-12T08:23:58;5.70;;;1.00;;
32780;SDS011;19136;47.032;15.502;2023-04-12T08:26:24;7.50;;;1.20;;
32780;SDS011;19136;47.032;15.502;2023-04-12T08:28:51;7.75;;;1.63;;
32780;SDS011;19136;47.032;15.502;2023-04-12T08:31:16;11.63;;;1.75;;
32780;SDS011;19136;47.032;15.502;2023-04-12T08:33:42;4.78;;;1.95;;
32780;SDS011;19136;47.032;15.502;2023-04-12T08:36:08;5.13;;;1.60;;
32780;SDS011;19136;47.032;15.502;2023-04-12T08:38:35;5.95;;;1.30;;
32780;SDS011;19136;47.032;15.502;2023-04-12T08:41:02;4.85;;;1.35;;
32780;SDS011;19136;47.032;15.502;2023-04-12T08:43:29;5.88;;;1.33;;
32780;SDS011;19136;47.032;15.502;2023-04-12T08:45:57;3.58;;;1.25;;
32780;SDS011;19136;47.032;15.502;2023-04-12T08:48:23;4.25;;;1.50;;
32780;SDS011;19136;47.032;15.502;2023-04-12T08:50:50;9.65;;;1.67;;
32780;SDS011;19136;47.032;15.502;2023-04-12T08:53:16;12.13;;;2.30;;
32780;SDS011;19136;47.032;15.502;2023-04-12T08:55:44;4.78;;;1.50;;
32780;SDS011;19136;47.032;15.502;2023-04-12T08:58:12;5.32;;;1.42;;
32780;SDS011;19136;47.032;15.502;2023-04-12T09:00:38;4.00;;;1.00;;
32780;SDS011;19136;47.032;15.502;2023-04-12T09:03:08;7.35;;;1.70;;
32780;SDS011;19136;47.032;15.502;2023-04-12T09:05:37;8.63;;;2.03;;
32780;SDS011;19136;47.032;15.502;2023-04-12T09:08:02;10.40;;;1.60;;
32780;SDS011;19136;47.032;15.502;2023-04-12T09:10:35;3.65;;;1.08;;
32780;SDS011;19136;47.032;15.502;2023-04-12T09:13:02;5.65;;;1.48;;
32780;SDS011;19136;47.032;15.502;2023-04-12T09:15:28;3.85;;;1.05;;
32780;SDS011;19136;47.032;15.502;2023-04-12T09:18:04;4.15;;;1.38;;
32780;SDS011;19136;47.032;15.502;2023-04-12T09:20:34;4.07;;;1.25;;
32780;SDS011;19136;47.032;15.502;2023-04-12T09:23:12;4.20;;;1.13;;
32780;SDS011;19136;47.032;15.502;2023-04-12T09:25:42;4.40;;;1.00;;
32780;SDS011;19136;47.032;15.502;2023-04-12T09:30:48;7.03;;;1.10;;
32780;SDS011;19136;47.032;15.502;2023-04-12T09:33:16;3.50;;;1.27;;
32780;SDS011;19136;47.032;15.502;2023-04-12T09:35:45;3.53;;;1.10;;
32780;SDS011;19136;47.032;15.502;2023-04-12T09:38:11;3.38;;;1.23;;
32780;SDS011;19136;47.032;15.502;2023-04-12T09:40:37;5.22;;;1.20;;
32780;SDS011;19136;47.032;15.502;2023-04-12T09:43:03;5.22;;;1.50;;
32780;SDS011;19136;47.032;15.502;2023-04-12T09:45:32;3.47;;;1.35;;
32780;SDS011;19136;47.032;15.502;2023-04-12T09:47:59;5.50;;;1.52;;
32780;SDS011;19136;47.032;15.502;2023-04-12T09:50:26;4.20;;;1.30;;
32780;SDS011;19136;47.032;15.502;2023-04-12T09:52:53;10.88;;;1.55;;
32780;SDS011;19136;47.032;15.502;2023-04-12T09:55:23;6.07;;;1.25;;
32780;SDS011;19136;47.032;15.502;2023-04-12T09:57:50;3.10;;;1.17;;
32780;SDS011;19136;47.032;15.502;2023-04-12T10:00:17;5.20;;;1.30;;
32780;SDS011;19136;47.032;15.502;2023-04-12T10:02:47;5.78;;;1.30;;
32780;SDS011;19136;47.032;15.502;2023-04-12T10:05:17;4.35;;;1.23;;
32780;SDS011;19136;47.032;15.502;2023-04-12T10:07:44;7.32;;;1.10;;
32780;SDS011;19136;47.032;15.502;2023-04-12T10:10:10;4.28;;;1.35;;
32780;SDS011;19136;47.032;15.502;2023-04-12T10:12:38;8.23;;;1.58;;
32780;SDS011;19136;47.032;15.502;2023-04-12T10:15:04;4.90;;;1.65;;
32780;SDS011;19136;47.032;15.502;2023-04-12T10:17:45;5.35;;;1.75;;
32780;SDS011;19136;47.032;15.502;2023-04-12T10:20:16;5.25;;;1.45;;
32780;SDS011;19136;47.032;15.502;2023-04-12T10:22:44;4.13;;;1.35;;
32780;SDS011;19136;47.032;15.502;2023-04-12T10:25:14;7.45;;;1.65;;
32780;SDS011;19136;47.032;15.502;2023-04-12T10:27:42;3.60;;;1.95;;
32780;SDS011;19136;47.032;15.502;2023-04-12T10:32:48;6.13;;;1.42;;
32780;SDS011;19136;47.032;15.502;2023-04-12T10:35:48;10.18;;;1.83;;
32780;SDS011;19136;47.032;15.502;2023-04-12T10:38:21;2.10;;;1.25;;
32780;SDS011;19136;47.032;15.502;2023-04-12T10:43:37;4.93;;;1.77;;
32780;SDS011;19136;47.032;15.502;2023-04-12T10:46:04;5.55;;;1.38;;
32780;SDS011;19136;47.032;15.502;2023-04-12T10:51:33;4.32;;;1.60;;
32780;SDS011;19136;47.032;15.502;2023-04-12T10:56:41;6.63;;;2.28;;
32780;SDS011;19136;47.032;15.502;2023-04-12T10:59:22;6.13;;;1.65;;
32780;SDS011;19136;47.032;15.502;2023-04-12T11:02:10;4.88;;;1.55;;
32780;SDS011;19136;47.032;15.502;2023-04-12T11:05:02;7.00;;;1.60;;
32780;SDS011;19136;47.032;15.502;2023-04-12T11:07:48;6.75;;;2.05;;
32780;SDS011;19136;47.032;15.502;2023-04-12T11:10:35;7.47;;;1.80;;
32780;SDS011;19136;47.032;15.502;2023-04-12T11:13:04;7.63;;;2.17;;
32780;SDS011;19136;47.032;15.502;2023-04-12T11:15:32;4.43;;;1.60;;
32780;SDS011;19136;47.032;15.502;2023-04-12T11:17:58;4.40;;;1.90;;
32780;SDS011;19136;47.032;15.502;2023-04-12T11:20:25;7.15;;;2.28;;
32780;SDS011;19136;47.032;15.502;2023-04-12T11:22:54;8.07;;;2.05;;
32780;SDS011;19136;47.032;15.502;2023-04-12T11:25:21;3.88;;;1.80;;
32780;SDS011;19136;47.032;15.502;2023-04-12T11:27:50;3.75;;;1.75;;
32780;SDS011;19136;47.032;15.502;2023-04-12T11:30:17;5.18;;;1.90;;
32780;SDS011;19136;47.032;15.502;2023-04-12T11:32:44;3.35;;;1.70;;
32780;SDS011;19136;47.032;15.502;2023-04-12T11:35:10;6.20;;;1.80;;
32780;SDS011;19136;47.032;15.502;2023-04-12T11:37:37;3.80;;;1.80;;
32780;SDS011;19136;47.032;15.502;2023-04-12T11:40:03;6.93;;;2.10;;
32780;SDS011;19136;47.032;15.502;2023-04-12T11:42:32;4.97;;;2.30;;
32780;SDS011;19136;47.032;15.502;2023-04-12T11:44:58;5.40;;;2.05;;
32780;SDS011;19136;47.032;15.502;2023-04-12T11:47:24;4.78;;;1.77;;
32780;SDS011;19136;47.032;15.502;2023-04-12T11:49:56;10.23;;;2.10;;
32780;SDS011;19136;47.032;15.502;2023-04-12T11:52:30;6.18;;;1.92;;
32780;SDS011;19136;47.032;15.502;2023-04-12T11:54:59;13.95;;;2.00;;
32780;SDS011;19136;47.032;15.502;2023-04-12T11:57:25;5.03;;;2.35;;
32780;SDS011;19136;47.032;15.502;2023-04-12T11:59:55;9.23;;;2.20;;
32780;SDS011;19136;47.032;15.502;2023-04-12T12:02:21;4.25;;;2.05;;
32780;SDS011;19136;47.032;15.502;2023-04-12T12:04:47;5.22;;;1.73;;
32780;SDS011;19136;47.032;15.502;2023-04-12T12:07:14;3.35;;;1.80;;
32780;SDS011;19136;47.032;15.502;2023-04-12T12:09:41;4.45;;;1.98;;
32780;SDS011;19136;47.032;15.502;2023-04-12T12:12:11;6.88;;;2.55;;
32780;SDS011;19136;47.032;15.502;2023-04-12T12:14:37;10.13;;;2.63;;
32780;SDS011;19136;47.032;15.502;2023-04-12T12:17:13;5.18;;;2.42;;
32780;SDS011;19136;47.032;15.502;2023-04-12T12:19:40;6.93;;;2.28;;
32780;SDS011;19136;47.032;15.502;2023-04-12T12:22:10;4.30;;;2.08;;
32780;SDS011;19136;47.032;15.502;2023-04-12T12:24:56;6.85;;;2.08;;
32780;SDS011;19136;47.032;15.502;2023-04-12T12:29:54;6.45;;;2.03;;
32780;SDS011;19136;47.032;15.502;2023-04-12T12:32:20;6.40;;;1.95;;
32780;SDS011;19136;47.032;15.502;2023-04-12T12:34:51;7.13;;;1.90;;
32780;SDS011;19136;47.032;15.502;2023-04-12T12:37:27;7.68;;;2.28;;
32780;SDS011;19136;47.032;15.502;2023-04-12T12:40:07;7.00;;;2.50;;
32780;SDS011;19136;47.032;15.502;2023-04-12T12:45:17;6.55;;;2.20;;
32780;SDS011;19136;47.032;15.502;2023-04-12T12:47:49;4.65;;;1.88;;
32780;SDS011;19136;47.032;15.502;2023-04-12T12:50:17;4.03;;;1.90;;
32780;SDS011;19136;47.032;15.502;2023-04-12T12:52:44;5.30;;;1.75;;
32780;SDS011;19136;47.032;15.502;2023-04-12T12:55:11;6.60;;;2.00;;
32780;SDS011;19136;47.032;15.502;2023-04-12T12:57:40;4.05;;;1.77;;
32780;SDS011;19136;47.032;15.502;2023-04-12T13:00:07;3.45;;;1.75;;
32780;SDS011;19136;47.032;15.502;2023-04-12T13:02:34;10.52;;;1.98;;
32780;SDS011;19136;47.032;15.502;2023-04-12T13:05:01;5.95;;;1.98;;
32780;SDS011;19136;47.032;15.502;2023-04-12T13:07:27;4.60;;;1.95;;
32780;SDS011;19136;47.032;15.502;2023-04-12T13:09:53;4.28;;;1.80;;
32780;SDS011;19136;47.032;15.502;2023-04-12T13:12:18;4.80;;;1.88;;
32780;SDS011;19136;47.032;15.502;2023-04-12T13:14:46;5.47;;;2.75;;
32780;SDS011;19136;47.032;15.502;2023-04-12T13:17:12;7.05;;;2.03;;
32780;SDS011;19136;47.032;15.502;2023-04-12T13:19:39;4.53;;;2.10;;
32780;SDS011;19136;47.032;15.502;2023-04-12T13:22:05;5.30;;;1.80;;
32780;SDS011;19136;47.032;15.502;2023-04-12T13:24:35;8.40;;;1.75;;
32780;SDS011;19136;47.032;15.502;2023-04-12T13:27:02;5.65;;;1.95;;
32780;SDS011;19136;47.032;15.502;2023-04-12T13:29:28;3.55;;;1.83;;
32780;SDS011;19136;47.032;15.502;2023-04-12T13:31:54;9.43;;;2.33;;
32780;SDS011;19136;47.032;15.502;2023-04-12T13:34:19;3.83;;;2.10;;
32780;SDS011;19136;47.032;15.502;2023-04-12T13:36:45;3.35;;;1.70;;
32780;SDS011;19136;47.032;15.502;2023-04-12T13:39:11;5.07;;;2.22;;
32780;SDS011;19136;47.032;15.502;2023-04-12T13:41:36;8.80;;;2.50;;
32780;SDS011;19136;47.032;15.502;2023-04-12T13:44:02;2.85;;;1.83;;
32780;SDS011;19136;47.032;15.502;2023-04-12T13:46:29;6.10;;;2.00;;
32780;SDS011;19136;47.032;15.502;2023-04-12T13:48:55;10.05;;;5.50;;
32780;SDS011;19136;47.032;15.502;2023-04-12T13:51:21;4.57;;;2.53;;
32780;SDS011;19136;47.032;15.502;2023-04-12T13:53:46;7.30;;;2.20;;
32780;SDS011;19136;47.032;15.502;2023-04-12T13:56:12;7.68;;;2.03;;
32780;SDS011;19136;47.032;15.502;2023-04-12T13:58:40;4.68;;;2.30;;
32780;SDS011;19136;47.032;15.502;2023-04-12T14:01:06;5.13;;;2.17;;
32780;SDS011;19136;47.032;15.502;2023-04-12T14:03:32;5.35;;;1.83;;
32780;SDS011;19136;47.032;15.502;2023-04-12T14:05:58;4.97;;;2.30;;
32780;SDS011;19136;47.032;15.502;2023-04-12T14:08:25;6.10;;;2.40;;
32780;SDS011;19136;47.032;15.502;2023-04-12T14:10:51;6.35;;;2.13;;
32780;SDS011;19136;47.032;15.502;2023-04-12T14:13:21;6.43;;;2.15;;
32780;SDS011;19136;47.032;15.502;2023-04-12T14:15:48;4.47;;;2.00;;
32780;SDS011;19136;47.032;15.502;2023-04-12T14:18:14;5.07;;;2.20;;
32780;SDS011;19136;47.032;15.502;2023-04-12T14:20:40;6.03;;;2.40;;
32780;SDS011;19136;47.032;15.502;2023-04-12T14:23:07;6.53;;;2.55;;
32780;SDS011;19136;47.032;15.502;2023-04-12T14:25:34;7.68;;;2.28;;
32780;SDS011;19136;47.032;15.502;2023-04-12T14:28:01;8.93;;;2.20;;
32780;SDS011;19136;47.032;15.502;2023-04-12T14:30:27;5.60;;;2.58;;
32780;SDS011;19136;47.032;15.502;2023-04-12T14:32:54;5.72;;;2.85;;
32780;SDS011;19136;47.032;15.502;2023-04-12T14:35:20;4.38;;;2.33;;
32780;SDS011;19136;47.032;15.502;2023-04-12T14:37:45;6.38;;;2.30;;
32780;SDS011;19136;47.032;15.502;2023-04-12T14:40:11;7.68;;;2.28;;
32780;SDS011;19136;47.032;15.502;2023-04-12T14:42:36;3.03;;;1.95;;
32780;SDS011;19136;47.032;15.502;2023-04-12T14:45:02;5.57;;;2.45;;
32780;SDS011;19136;47.032;15.502;2023-04-12T14:47:30;6.30;;;3.30;;
32780;SDS011;19136;47.032;15.502;2023-04-12T14:49:56;5.18;;;2.50;;
32780;SDS011;19136;47.032;15.502;2023-04-12T14:52:21;5.07;;;2.13;;
32780;SDS011;19136;47.032;15.502;2023-04-12T14:54:47;6.13;;;2.38;;
32780;SDS011;19136;47.032;15.502;2023-04-12T14:57:13;3.50;;;1.95;;
32780;SDS011;19136;47.032;15.502;2023-04-12T14:59:39;10.52;;;2.22;;
32780;SDS011;19136;47.032;15.502;2023-04-12T15:02:05;10.05;;;2.67;;
32780;SDS011;19136;47.032;15.502;2023-04-12T15:04:31;5.53;;;2.67;;